sensor_id;sensor_type;location;lat;lon;timestamp;pressure;altitude;pressure_sealevel;temperature;humidity
59789;BME280;47353;51.614;5.530;2022-12-18T00:01:03;102756.47;;;-6.50;100.00
59789;BME280;47353;51.614;5.530;2022-12-18T00:03:34;102759.53;;;-6.54;100.00
59789;BME280;47353;51.614;5.530;2022-12-18T00:05:59;102762.47;;;-6.57;100.00
59789;BME280;47353;51.614;5.530;2022-12-18T00:08:25;102757.06;;;-6.57;100.00
59789;BME280;47353;51.614;5.530;2022-12-18T00:10:50;102742.00;;;-6.60;100.00
59789;BME280;47353;51.614;5.530;2022-12-18T00:13:16;102751.19;;;-6.62;100.00
59789;BME280;47353;51.614;5.530;2022-12-18T00:15:41;102762.44;;;-6.68;100.00
59789;BME280;47353;51.614;5.530;2022-12-18T00:18:07;102763.03;;;-6.76;100.00
59789;BME280;47353;51.614;5.530;2022-12-18T00:20:37;102757.78;;;-6.77;100.00
59789;BME280;47353;51.614;5.530;2022-12-18T00:23:04;102759.47;;;-6.76;100.00
59789;BME280;47353;51.614;5.530;2022-12-18T00:25:29;102746.50;;;-6.82;100.00
59789;BME280;47353;51.614;5.530;2022-12-18T00:27:57;102745.88;;;-6.86;100.00
59789;BME280;47353;51.614;5.530;2022-12-18T00:30:22;102746.34;;;-6.92;100.00
59789;BME280;47353;51.614;5.530;2022-12-18T00:32:47;102738.63;;;-6.97;100.00
59789;BME280;47353;51.614;5.530;2022-12-18T00:35:13;102734.09;;;-6.96;100.00
59789;BME280;47353;51.614;5.530;2022-12-18T00:37:38;102739.25;;;-6.93;100.00
59789;BME280;47353;51.614;5.530;2022-12-18T00:40:04;102743.44;;;-6.78;100.00
59789;BME280;47353;51.614;5.530;2022-12-18T00:42:29;102741.72;;;-6.90;100.00
59789;BME280;47353;51.614;5.530;2022-12-18T00:45:13;102736.78;;;-6.96;100.00
59789;BME280;47353;51.614;5.530;2022-12-18T00:47:39;102739.09;;;-7.03;100.00
59789;BME280;47353;51.614;5.530;2022-12-18T00:50:05;102737.88;;;-6.99;100.00
59789;BME280;47353;51.614;5.530;2022-12-18T00:52:31;102730.50;;;-7.08;100.00
59789;BME280;47353;51.614;5.530;2022-12-18T00:54:56;102730.03;;;-7.13;100.00
59789;BME280;47353;51.614;5.530;2022-12-18T00:57:21;102730.88;;;-7.12;100.00
59789;BME280;47353;51.614;5.530;2022-12-18T00:59:47;102726.91;;;-6.96;100.00
59789;BME280;47353;51.614;5.530;2022-12-18T01:02:12;102719.28;;;-7.02;100.00
59789;BME280;47353;51.614;5.530;2022-12-18T01:04:38;102725.13;;;-7.08;100.00
59789;BME280;47353;51.614;5.530;2022-12-18T01:07:03;102728.97;;;-6.99;100.00
59789;BME280;47353;51.614;5.530;2022-12-18T01:09:28;102738.69;;;-6.74;100.00
59789;BME280;47353;51.614;5.530;2022-12-18T01:11:54;102750.13;;;-6.95;100.00
59789;BME280;47353;51.614;5.530;2022-12-18T01:14:19;102758.25;;;-6.83;100.00
59789;BME280;47353;51.614;5.530;2022-12-18T01:16:44;102753.34;;;-6.89;100.00
59789;BME280;47353;51.614;5.530;2022-12-18T01:19:10;102753.69;;;-6.94;100.00
59789;BME280;47353;51.614;5.530;2022-12-18T01:21:35;102769.06;;;-7.07;100.00
59789;BME280;47353;51.614;5.530;2022-12-18T01:24:01;102758.13;;;-7.17;100.00
59789;BME280;47353;51.614;5.530;2022-12-18T01:26:26;102754.72;;;-7.19;100.00
59789;BME280;47353;51.614;5.530;2022-12-18T01:28:55;102753.44;;;-7.26;100.00
59789;BME280;47353;51.614;5.530;2022-12-18T01:31:25;102746.25;;;-7.25;100.00
59789;BME280;47353;51.614;5.530;2022-12-18T01:33:52;102756.38;;;-7.29;100.00
59789;BME280;47353;51.614;5.530;2022-12-18T01:36:29;102758.16;;;-7.06;100.00
59789;BME280;47353;51.614;5.530;2022-12-18T01:38:55;102747.34;;;-7.17;100.00
59789;BME280;47353;51.614;5.530;2022-12-18T01:41:29;102738.47;;;-7.06;100.00
59789;BME280;47353;51.614;5.530;2022-12-18T01:47:18;102743.97;;;-7.08;100.00
59789;BME280;47353;51.614;5.530;2022-12-18T01:49:45;102737.41;;;-7.04;100.00
59789;BME280;47353;51.614;5.530;2022-12-18T01:52:10;102737.81;;;-7.21;100.00
59789;BME280;47353;51.614;5.530;2022-12-18T01:54:36;102732.03;;;-7.27;100.00
59789;BME280;47353;51.614;5.530;2022-12-18T01:57:01;102742.69;;;-7.26;100.00
59789;BME280;47353;51.614;5.530;2022-12-18T01:59:27;102738.63;;;-7.31;100.00
59789;BME280;47353;51.614;5.530;2022-12-18T02:01:55;102734.03;;;-7.42;100.00
59789;BME280;47353;51.614;5.530;2022-12-18T02:04:21;102741.03;;;-7.39;100.00
59789;BME280;47353;51.614;5.530;2022-12-18T02:06:53;102741.28;;;-7.42;100.00
59789;BME280;47353;51.614;5.530;2022-12-18T02:09:31;102737.72;;;-7.43;100.00
59789;BME280;47353;51.614;5.530;2022-12-18T02:17:21;102734.78;;;-7.40;100.00
59789;BME280;47353;51.614;5.530;2022-12-18T02:28:06;102728.53;;;-7.51;100.00
59789;BME280;47353;51.614;5.530;2022-12-18T02:30:35;102735.44;;;-7.60;100.00
59789;BME280;47353;51.614;5.530;2022-12-18T02:33:04;102735.09;;;-7.55;100.00
59789;BME280;47353;51.614;5.530;2022-12-18T02:35:30;102726.19;;;-7.56;100.00
59789;BME280;47353;51.614;5.530;2022-12-18T02:37:56;102731.56;;;-7.56;100.00
59789;BME280;47353;51.614;5.530;2022-12-18T02:40:24;102732.69;;;-7.47;100.00
59789;BME280;47353;51.614;5.530;2022-12-18T02:42:51;102735.25;;;-7.46;100.00
59789;BME280;47353;51.614;5.530;2022-12-18T02:45:17;102725.13;;;-7.42;100.00
59789;BME280;47353;51.614;5.530;2022-12-18T02:47:46;102723.28;;;-7.42;100.00
59789;BME280;47353;51.614;5.530;2022-12-18T03:03:31;102712.56;;;-7.65;100.00
59789;BME280;47353;51.614;5.530;2022-12-18T03:06:05;102701.16;;;-7.69;100.00
59789;BME280;47353;51.614;5.530;2022-12-18T03:08:48;102702.03;;;-7.68;100.00
59789;BME280;47353;51.614;5.530;2022-12-18T03:11:15;102699.25;;;-7.67;100.00
59789;BME280;47353;51.614;5.530;2022-12-18T03:13:51;102700.06;;;-7.66;100.00
59789;BME280;47353;51.614;5.530;2022-12-18T03:16:22;102695.56;;;-7.66;100.00
59789;BME280;47353;51.614;5.530;2022-12-18T03:18:54;102698.19;;;-7.77;100.00
59789;BME280;47353;51.614;5.530;2022-12-18T03:21:24;102693.38;;;-7.84;100.00
59789;BME280;47353;51.614;5.530;2022-12-18T03:23:52;102704.78;;;-7.81;100.00
59789;BME280;47353;51.614;5.530;2022-12-18T03:26:22;102695.78;;;-7.92;100.00
59789;BME280;47353;51.614;5.530;2022-12-18T03:29:02;102692.97;;;-7.91;100.00
59789;BME280;47353;51.614;5.530;2022-12-18T03:31:30;102700.09;;;-7.90;100.00
59789;BME280;47353;51.614;5.530;2022-12-18T03:34:02;102690.28;;;-7.91;100.00
59789;BME280;47353;51.614;5.530;2022-12-18T03:36:30;102692.47;;;-7.96;100.00
59789;BME280;47353;51.614;5.530;2022-12-18T03:38:57;102691.63;;;-7.73;100.00
59789;BME280;47353;51.614;5.530;2022-12-18T03:44:11;102686.13;;;-7.71;100.00
59789;BME280;47353;51.614;5.530;2022-12-18T03:49:33;102688.25;;;-7.87;100.00
59789;BME280;47353;51.614;5.530;2022-12-18T03:52:07;102678.41;;;-7.99;100.00
59789;BME280;47353;51.614;5.530;2022-12-18T03:54:35;102675.31;;;-7.82;100.00
59789;BME280;47353;51.614;5.530;2022-12-18T03:57:05;102672.88;;;-7.85;100.00
59789;BME280;47353;51.614;5.530;2022-12-18T03:59:33;102670.31;;;-7.87;100.00
59789;BME280;47353;51.614;5.530;2022-12-18T04:02:00;102663.47;;;-7.80;100.00
59789;BME280;47353;51.614;5.530;2022-12-18T04:04:27;102662.59;;;-7.91;100.00
59789;BME280;47353;51.614;5.530;2022-12-18T04:06:53;102661.19;;;-7.97;100.00
59789;BME280;47353;51.614;5.530;2022-12-18T04:09:20;102662.28;;;-7.99;100.00
59789;BME280;47353;51.614;5.530;2022-12-18T04:11:46;102641.56;;;-7.97;100.00
59789;BME280;47353;51.614;5.530;2022-12-18T04:14:12;102643.13;;;-7.95;100.00
59789;BME280;47353;51.614;5.530;2022-12-18T04:16:37;102644.13;;;-7.96;100.00
59789;BME280;47353;51.614;5.530;2022-12-18T04:19:03;102636.91;;;-7.95;100.00
59789;BME280;47353;51.614;5.530;2022-12-18T04:21:29;102640.34;;;-7.93;100.00
59789;BME280;47353;51.614;5.530;2022-12-18T04:23:54;102638.13;;;-7.76;100.00
59789;BME280;47353;51.614;5.530;2022-12-18T04:26:19;102640.75;;;-7.87;100.00
59789;BME280;47353;51.614;5.530;2022-12-18T04:28:45;102638.22;;;-7.77;100.00
59789;BME280;47353;51.614;5.530;2022-12-18T04:31:11;102638.34;;;-7.79;100.00
59789;BME280;47353;51.614;5.530;2022-12-18T04:33:36;102625.97;;;-7.81;100.00
59789;BME280;47353;51.614;5.530;2022-12-18T04:36:02;102622.47;;;-7.71;100.00
59789;BME280;47353;51.614;5.530;2022-12-18T04:38:27;102638.78;;;-7.85;100.00
59789;BME280;47353;51.614;5.530;2022-12-18T04:40:53;102644.84;;;-7.94;100.00
59789;BME280;47353;51.614;5.530;2022-12-18T04:43:18;102655.25;;;-7.89;100.00
59789;BME280;47353;51.614;5.530;2022-12-18T04:45:43;102651.66;;;-8.01;100.00
59789;BME280;47353;51.614;5.530;2022-12-18T04:48:09;102664.94;;;-7.87;100.00
59789;BME280;47353;51.614;5.530;2022-12-18T04:50:34;102665.53;;;-8.07;100.00
59789;BME280;47353;51.614;5.530;2022-12-18T04:53:00;102660.50;;;-8.11;100.00
59789;BME280;47353;51.614;5.530;2022-12-18T04:55:26;102665.00;;;-8.12;100.00
59789;BME280;47353;51.614;5.530;2022-12-18T04:57:52;102660.84;;;-8.16;100.00
59789;BME280;47353;51.614;5.530;2022-12-18T05:00:17;102666.56;;;-8.20;100.00
59789;BME280;47353;51.614;5.530;2022-12-18T05:02:43;102679.50;;;-8.25;100.00
59789;BME280;47353;51.614;5.530;2022-12-18T05:05:08;102682.28;;;-8.27;100.00
59789;BME280;47353;51.614;5.530;2022-12-18T05:07:34;102682.50;;;-8.30;100.00
59789;BME280;47353;51.614;5.530;2022-12-18T05:09:59;102685.41;;;-8.33;100.00
59789;BME280;47353;51.614;5.530;2022-12-18T05:12:25;102689.94;;;-8.33;100.00
59789;BME280;47353;51.614;5.530;2022-12-18T05:14:50;102683.47;;;-8.31;100.00
59789;BME280;47353;51.614;5.530;2022-12-18T05:17:16;102692.44;;;-8.19;100.00
59789;BME280;47353;51.614;5.530;2022-12-18T05:19:41;102682.56;;;-8.19;100.00
59789;BME280;47353;51.614;5.530;2022-12-18T05:22:07;102686.31;;;-8.21;100.00
59789;BME280;47353;51.614;5.530;2022-12-18T05:24:32;102693.50;;;-8.22;100.00
59789;BME280;47353;51.614;5.530;2022-12-18T05:26:58;102685.94;;;-8.28;100.00
59789;BME280;47353;51.614;5.530;2022-12-18T05:29:23;102684.09;;;-8.27;100.00
59789;BME280;47353;51.614;5.530;2022-12-18T05:31:49;102684.88;;;-8.25;100.00
59789;BME280;47353;51.614;5.530;2022-12-18T05:34:14;102679.50;;;-8.25;100.00
59789;BME280;47353;51.614;5.530;2022-12-18T05:36:40;102676.91;;;-8.27;100.00
59789;BME280;47353;51.614;5.530;2022-12-18T05:39:05;102670.34;;;-8.23;100.00
59789;BME280;47353;51.614;5.530;2022-12-18T05:41:31;102680.66;;;-8.29;100.00
59789;BME280;47353;51.614;5.530;2022-12-18T05:43:56;102672.00;;;-8.33;100.00
59789;BME280;47353;51.614;5.530;2022-12-18T05:46:23;102681.22;;;-8.37;100.00
59789;BME280;47353;51.614;5.530;2022-12-18T05:48:49;102655.03;;;-8.46;100.00
59789;BME280;47353;51.614;5.530;2022-12-18T05:51:19;102667.91;;;-8.38;100.00
59789;BME280;47353;51.614;5.530;2022-12-18T05:53:45;102660.63;;;-8.36;100.00
59789;BME280;47353;51.614;5.530;2022-12-18T05:56:13;102658.03;;;-8.38;100.00
59789;BME280;47353;51.614;5.530;2022-12-18T05:58:40;102655.47;;;-8.39;100.00
59789;BME280;47353;51.614;5.530;2022-12-18T06:01:12;102650.09;;;-8.39;100.00
59789;BME280;47353;51.614;5.530;2022-12-18T06:03:38;102643.41;;;-8.34;100.00
59789;BME280;47353;51.614;5.530;2022-12-18T06:06:03;102648.22;;;-8.26;100.00
59789;BME280;47353;51.614;5.530;2022-12-18T06:08:29;102648.25;;;-8.15;100.00
59789;BME280;47353;51.614;5.530;2022-12-18T06:10:54;102644.09;;;-8.19;100.00
59789;BME280;47353;51.614;5.530;2022-12-18T06:13:21;102635.16;;;-8.20;100.00
59789;BME280;47353;51.614;5.530;2022-12-18T06:15:46;102639.25;;;-8.14;100.00
59789;BME280;47353;51.614;5.530;2022-12-18T06:18:12;102626.19;;;-8.08;100.00
59789;BME280;47353;51.614;5.530;2022-12-18T06:20:37;102621.34;;;-8.03;100.00
59789;BME280;47353;51.614;5.530;2022-12-18T06:23:05;102633.38;;;-7.96;100.00
59789;BME280;47353;51.614;5.530;2022-12-18T06:25:31;102635.41;;;-7.99;100.00
59789;BME280;47353;51.614;5.530;2022-12-18T06:27:56;102646.50;;;-8.04;100.00
59789;BME280;47353;51.614;5.530;2022-12-18T06:30:22;102649.09;;;-8.02;100.00
59789;BME280;47353;51.614;5.530;2022-12-18T06:32:50;102645.66;;;-8.04;100.00
59789;BME280;47353;51.614;5.530;2022-12-18T06:35:15;102640.72;;;-8.10;100.00
59789;BME280;47353;51.614;5.530;2022-12-18T06:37:41;102644.16;;;-8.08;100.00
59789;BME280;47353;51.614;5.530;2022-12-18T06:40:07;102636.78;;;-8.17;100.00
59789;BME280;47353;51.614;5.530;2022-12-18T06:42:32;102639.72;;;-8.20;100.00
59789;BME280;47353;51.614;5.530;2022-12-18T06:44:58;102637.19;;;-8.11;100.00
59789;BME280;47353;51.614;5.530;2022-12-18T06:47:23;102627.59;;;-8.02;100.00
59789;BME280;47353;51.614;5.530;2022-12-18T06:49:49;102621.47;;;-8.04;100.00
59789;BME280;47353;51.614;5.530;2022-12-18T06:52:14;102615.69;;;-8.11;100.00
59789;BME280;47353;51.614;5.530;2022-12-18T06:54:39;102615.53;;;-8.20;100.00
59789;BME280;47353;51.614;5.530;2022-12-18T06:57:05;102621.84;;;-8.21;100.00
59789;BME280;47353;51.614;5.530;2022-12-18T06:59:30;102628.34;;;-8.24;100.00
59789;BME280;47353;51.614;5.530;2022-12-18T07:01:56;102624.91;;;-8.26;100.00
59789;BME280;47353;51.614;5.530;2022-12-18T07:04:21;102620.31;;;-8.24;100.00
59789;BME280;47353;51.614;5.530;2022-12-18T07:06:47;102621.47;;;-8.28;100.00
59789;BME280;47353;51.614;5.530;2022-12-18T07:09:12;102613.53;;;-8.29;100.00
59789;BME280;47353;51.614;5.530;2022-12-18T07:11:37;102617.44;;;-8.33;100.00
59789;BME280;47353;51.614;5.530;2022-12-18T07:14:03;102615.09;;;-8.38;100.00
59789;BME280;47353;51.614;5.530;2022-12-18T07:16:28;102610.81;;;-8.40;100.00
59789;BME280;47353;51.614;5.530;2022-12-18T07:18:54;102608.50;;;-8.34;100.00
59789;BME280;47353;51.614;5.530;2022-12-18T07:21:21;102596.28;;;-8.38;100.00
59789;BME280;47353;51.614;5.530;2022-12-18T07:23:46;102598.00;;;-8.37;100.00
59789;BME280;47353;51.614;5.530;2022-12-18T07:26:13;102585.88;;;-8.42;100.00
59789;BME280;47353;51.614;5.530;2022-12-18T07:28:40;102594.03;;;-8.31;100.00
59789;BME280;47353;51.614;5.530;2022-12-18T07:31:09;102584.22;;;-8.32;100.00
59789;BME280;47353;51.614;5.530;2022-12-18T07:33:35;102578.84;;;-8.32;100.00
59789;BME280;47353;51.614;5.530;2022-12-18T07:36:03;102580.59;;;-8.31;100.00
59789;BME280;47353;51.614;5.530;2022-12-18T07:38:29;102571.75;;;-8.10;100.00
59789;BME280;47353;51.614;5.530;2022-12-18T07:41:00;102564.47;;;-7.97;100.00
59789;BME280;47353;51.614;5.530;2022-12-18T07:43:26;102560.28;;;-7.77;100.00
59789;BME280;47353;51.614;5.530;2022-12-18T07:45:51;102556.53;;;-7.64;100.00
59789;BME280;47353;51.614;5.530;2022-12-18T07:48:17;102555.50;;;-7.28;100.00
59789;BME280;47353;51.614;5.530;2022-12-18T07:50:42;102554.28;;;-7.24;100.00
59789;BME280;47353;51.614;5.530;2022-12-18T07:53:07;102541.47;;;-7.10;100.00
59789;BME280;47353;51.614;5.530;2022-12-18T07:55:33;102535.22;;;-7.10;100.00
59789;BME280;47353;51.614;5.530;2022-12-18T07:58:01;102523.47;;;-6.87;100.00
59789;BME280;47353;51.614;5.530;2022-12-18T08:00:27;102515.75;;;-6.80;100.00
59789;BME280;47353;51.614;5.530;2022-12-18T08:02:52;102519.06;;;-6.77;100.00
59789;BME280;47353;51.614;5.530;2022-12-18T08:05:18;102518.56;;;-6.82;100.00
59789;BME280;47353;51.614;5.530;2022-12-18T08:07:43;102527.72;;;-6.84;100.00
59789;BME280;47353;51.614;5.530;2022-12-18T08:10:09;102530.53;;;-6.86;100.00
59789;BME280;47353;51.614;5.530;2022-12-18T08:12:34;102532.16;;;-6.72;100.00
59789;BME280;47353;51.614;5.530;2022-12-18T08:15:00;102537.72;;;-6.64;100.00
59789;BME280;47353;51.614;5.530;2022-12-18T08:17:25;102528.72;;;-6.74;100.00
59789;BME280;47353;51.614;5.530;2022-12-18T08:19:50;102538.09;;;-6.69;100.00
59789;BME280;47353;51.614;5.530;2022-12-18T08:22:16;102543.22;;;-6.44;100.00
59789;BME280;47353;51.614;5.530;2022-12-18T08:24:42;102534.53;;;-6.58;100.00
59789;BME280;47353;51.614;5.530;2022-12-18T08:27:07;102555.69;;;-6.43;100.00
59789;BME280;47353;51.614;5.530;2022-12-18T08:29:33;102551.41;;;-6.34;100.00
59789;BME280;47353;51.614;5.530;2022-12-18T08:31:59;102521.41;;;-6.41;100.00
59789;BME280;47353;51.614;5.530;2022-12-18T08:34:24;102552.03;;;-6.10;100.00
59789;BME280;47353;51.614;5.530;2022-12-18T08:36:49;102545.31;;;-6.05;100.00
59789;BME280;47353;51.614;5.530;2022-12-18T08:39:15;102540.22;;;-5.78;100.00
59789;BME280;47353;51.614;5.530;2022-12-18T08:41:40;102544.00;;;-5.69;100.00
59789;BME280;47353;51.614;5.530;2022-12-18T08:44:07;102534.25;;;-5.61;100.00
59789;BME280;47353;51.614;5.530;2022-12-18T08:46:51;102529.88;;;-5.32;100.00
59789;BME280;47353;51.614;5.530;2022-12-18T08:49:16;102523.25;;;-5.28;100.00
59789;BME280;47353;51.614;5.530;2022-12-18T08:51:41;102505.72;;;-5.13;100.00
59789;BME280;47353;51.614;5.530;2022-12-18T08:54:07;102504.66;;;-4.91;100.00
59789;BME280;47353;51.614;5.530;2022-12-18T08:56:33;102507.69;;;-4.75;100.00
59789;BME280;47353;51.614;5.530;2022-12-18T08:58:59;102515.19;;;-4.39;100.00
59789;BME280;47353;51.614;5.530;2022-12-18T09:01:24;102512.78;;;-4.13;99.19
59789;BME280;47353;51.614;5.530;2022-12-18T09:03:50;102500.13;;;-4.03;98.76
59789;BME280;47353;51.614;5.530;2022-12-18T09:06:18;102498.97;;;-4.01;97.18
59789;BME280;47353;51.614;5.530;2022-12-18T09:08:44;102519.78;;;-4.01;97.33
59789;BME280;47353;51.614;5.530;2022-12-18T09:11:23;102517.47;;;-3.96;98.25
59789;BME280;47353;51.614;5.530;2022-12-18T09:13:49;102519.19;;;-3.67;94.70
59789;BME280;47353;51.614;5.530;2022-12-18T09:16:15;102519.03;;;-3.75;93.60
59789;BME280;47353;51.614;5.530;2022-12-18T09:18:41;102517.91;;;-3.91;93.53
59789;BME280;47353;51.614;5.530;2022-12-18T09:21:11;102518.50;;;-3.88;95.39
59789;BME280;47353;51.614;5.530;2022-12-18T09:23:37;102525.88;;;-3.71;94.83
59789;BME280;47353;51.614;5.530;2022-12-18T09:26:02;102532.16;;;-3.80;94.54
59789;BME280;47353;51.614;5.530;2022-12-18T09:28:28;102539.13;;;-3.77;95.50
59789;BME280;47353;51.614;5.530;2022-12-18T09:30:53;102549.38;;;-3.52;93.11
59789;BME280;47353;51.614;5.530;2022-12-18T09:33:19;102551.06;;;-3.51;92.34
59789;BME280;47353;51.614;5.530;2022-12-18T09:35:45;102541.25;;;-3.71;93.18
59789;BME280;47353;51.614;5.530;2022-12-18T09:38:17;102537.13;;;-3.66;93.66
59789;BME280;47353;51.614;5.530;2022-12-18T09:40:48;102517.47;;;-3.58;93.88
59789;BME280;47353;51.614;5.530;2022-12-18T09:43:18;102509.00;;;-3.36;92.40
59789;BME280;47353;51.614;5.530;2022-12-18T09:45:47;102502.19;;;-3.40;92.47
59789;BME280;47353;51.614;5.530;2022-12-18T09:48:31;102501.28;;;-3.21;92.25
59789;BME280;47353;51.614;5.530;2022-12-18T09:51:02;102494.22;;;-3.05;90.17
59789;BME280;47353;51.614;5.530;2022-12-18T09:53:31;102490.25;;;-3.01;88.97
59789;BME280;47353;51.614;5.530;2022-12-18T09:56:00;102476.69;;;-3.01;88.87
59789;BME280;47353;51.614;5.530;2022-12-18T09:58:30;102475.25;;;-3.05;89.78
59789;BME280;47353;51.614;5.530;2022-12-18T10:00:57;102473.59;;;-2.88;89.12
59789;BME280;47353;51.614;5.530;2022-12-18T10:03:22;102469.47;;;-2.83;89.99
59789;BME280;47353;51.614;5.530;2022-12-18T10:13:52;102490.00;;;-2.18;87.25
59789;BME280;47353;51.614;5.530;2022-12-18T10:16:34;102488.94;;;-2.08;86.71
59789;BME280;47353;51.614;5.530;2022-12-18T10:21:43;102490.47;;;-1.88;86.25
59789;BME280;47353;51.614;5.530;2022-12-18T10:26:48;102485.06;;;-2.05;86.53
59789;BME280;47353;51.614;5.530;2022-12-18T10:29:16;102483.34;;;-2.06;86.08
59789;BME280;47353;51.614;5.530;2022-12-18T10:31:42;102476.19;;;-1.90;83.98
59789;BME280;47353;51.614;5.530;2022-12-18T10:34:11;102467.31;;;-2.00;84.16
59789;BME280;47353;51.614;5.530;2022-12-18T10:36:37;102463.91;;;-2.19;86.33
59789;BME280;47353;51.614;5.530;2022-12-18T10:39:18;102457.78;;;-2.04;83.80
59789;BME280;47353;51.614;5.530;2022-12-18T10:41:44;102452.38;;;-2.04;84.57
59789;BME280;47353;51.614;5.530;2022-12-18T10:46:37;102449.81;;;-1.62;82.65
59789;BME280;47353;51.614;5.530;2022-12-18T10:49:02;102433.00;;;-1.65;82.63
59789;BME280;47353;51.614;5.530;2022-12-18T10:51:31;102437.56;;;-1.40;82.21
59789;BME280;47353;51.614;5.530;2022-12-18T10:54:05;102430.19;;;-1.48;81.15
59789;BME280;47353;51.614;5.530;2022-12-18T10:56:37;102428.25;;;-1.63;82.54
59789;BME280;47353;51.614;5.530;2022-12-18T10:59:05;102421.78;;;-1.37;80.76
59789;BME280;47353;51.614;5.530;2022-12-18T11:04:19;102402.53;;;-1.77;81.91
59789;BME280;47353;51.614;5.530;2022-12-18T11:07:04;102408.75;;;-1.85;83.41
59789;BME280;47353;51.614;5.530;2022-12-18T11:09:31;102408.69;;;-1.93;83.61
59789;BME280;47353;51.614;5.530;2022-12-18T11:12:00;102405.78;;;-1.74;84.05
59789;BME280;47353;51.614;5.530;2022-12-18T11:14:32;102409.28;;;-1.55;82.90
59789;BME280;47353;51.614;5.530;2022-12-18T11:17:00;102424.56;;;-1.80;82.72
59789;BME280;47353;51.614;5.530;2022-12-18T11:19:39;102414.03;;;-1.83;82.98
59789;BME280;47353;51.614;5.530;2022-12-18T11:22:28;102407.44;;;-1.81;84.39
59789;BME280;47353;51.614;5.530;2022-12-18T11:27:38;102404.56;;;-1.79;83.05
59789;BME280;47353;51.614;5.530;2022-12-18T11:30:21;102395.56;;;-1.80;83.83
59789;BME280;47353;51.614;5.530;2022-12-18T11:33:18;102391.25;;;-1.64;83.79
59789;BME280;47353;51.614;5.530;2022-12-18T11:35:49;102390.19;;;-1.72;84.28
59789;BME280;47353;51.614;5.530;2022-12-18T11:38:21;102384.44;;;-1.68;83.54
59789;BME280;47353;51.614;5.530;2022-12-18T11:41:16;102389.13;;;-1.53;83.40
59789;BME280;47353;51.614;5.530;2022-12-18T11:44:00;102379.00;;;-1.43;83.24
59789;BME280;47353;51.614;5.530;2022-12-18T11:46:38;102380.13;;;-1.53;83.49
59789;BME280;47353;51.614;5.530;2022-12-18T11:49:28;102378.28;;;-1.53;82.64
59789;BME280;47353;51.614;5.530;2022-12-18T11:54:39;102375.13;;;-1.40;80.68
59789;BME280;47353;51.614;5.530;2022-12-18T11:57:30;102378.78;;;-1.49;83.33
59789;BME280;47353;51.614;5.530;2022-12-18T12:00:15;102372.91;;;-1.37;80.58
59789;BME280;47353;51.614;5.530;2022-12-18T12:31:47;102316.63;;;-1.27;80.51
59789;BME280;47353;51.614;5.530;2022-12-18T12:37:28;102316.13;;;-1.22;80.27
59789;BME280;47353;51.614;5.530;2022-12-18T12:40:00;102318.19;;;-1.08;79.66
59789;BME280;47353;51.614;5.530;2022-12-18T12:42:34;102298.66;;;-1.12;81.01
59789;BME280;47353;51.614;5.530;2022-12-18T12:45:26;102294.25;;;-1.13;80.76
59789;BME280;47353;51.614;5.530;2022-12-18T12:47:54;102294.06;;;-1.03;78.83
59789;BME280;47353;51.614;5.530;2022-12-18T12:50:21;102284.91;;;-1.10;79.71
59789;BME280;47353;51.614;5.530;2022-12-18T12:52:53;102278.06;;;-1.30;81.11
59789;BME280;47353;51.614;5.530;2022-12-18T12:55:21;102273.44;;;-0.80;78.13
59789;BME280;47353;51.614;5.530;2022-12-18T12:58:07;102268.97;;;-0.89;78.43
59789;BME280;47353;51.614;5.530;2022-12-18T13:00:43;102262.69;;;-0.98;78.08
59789;BME280;47353;51.614;5.530;2022-12-18T13:03:35;102259.09;;;-1.14;79.45
59789;BME280;47353;51.614;5.530;2022-12-18T13:06:15;102264.00;;;-1.18;79.08
59789;BME280;47353;51.614;5.530;2022-12-18T13:08:57;102262.66;;;-1.22;80.51
59789;BME280;47353;51.614;5.530;2022-12-18T13:11:31;102252.66;;;-1.05;78.96
59789;BME280;47353;51.614;5.530;2022-12-18T13:14:26;102253.84;;;-1.16;79.66
59789;BME280;47353;51.614;5.530;2022-12-18T13:17:16;102253.81;;;-1.08;79.86
59789;BME280;47353;51.614;5.530;2022-12-18T13:19:42;102258.03;;;-1.21;80.32
59789;BME280;47353;51.614;5.530;2022-12-18T13:23:03;102253.84;;;-1.00;80.40
59789;BME280;47353;51.614;5.530;2022-12-18T13:27:59;102247.03;;;-1.12;79.31
59789;BME280;47353;51.614;5.530;2022-12-18T13:46:17;102237.22;;;-0.89;79.92
59789;BME280;47353;51.614;5.530;2022-12-18T13:48:37;102238.19;;;-1.14;78.92
59789;BME280;47353;51.614;5.530;2022-12-18T13:51:06;102223.13;;;-1.00;79.60
59789;BME280;47353;51.614;5.530;2022-12-18T13:53:35;102222.94;;;-1.15;80.06
59789;BME280;47353;51.614;5.530;2022-12-18T13:56:03;102221.25;;;-0.84;78.48
59789;BME280;47353;51.614;5.530;2022-12-18T13:58:29;102222.44;;;-1.02;78.62
59789;BME280;47353;51.614;5.530;2022-12-18T14:00:54;102215.31;;;-0.71;78.21
59789;BME280;47353;51.614;5.530;2022-12-18T14:03:24;102213.78;;;-0.82;77.43
59789;BME280;47353;51.614;5.530;2022-12-18T14:06:04;102208.16;;;-1.04;78.17
59789;BME280;47353;51.614;5.530;2022-12-18T14:08:39;102205.09;;;-1.17;79.81
59789;BME280;47353;51.614;5.530;2022-12-18T14:11:06;102214.63;;;-1.05;79.22
59789;BME280;47353;51.614;5.530;2022-12-18T14:13:37;102218.00;;;-1.19;79.85
59789;BME280;47353;51.614;5.530;2022-12-18T14:16:05;102215.47;;;-0.97;78.95
59789;BME280;47353;51.614;5.530;2022-12-18T14:18:56;102219.91;;;-0.96;79.65
59789;BME280;47353;51.614;5.530;2022-12-18T14:21:26;102215.31;;;-1.11;79.72
59789;BME280;47353;51.614;5.530;2022-12-18T14:24:16;102212.22;;;-1.16;80.43
59789;BME280;47353;51.614;5.530;2022-12-18T14:26:42;102203.75;;;-1.13;79.75
59789;BME280;47353;51.614;5.530;2022-12-18T14:29:21;102213.94;;;-1.07;80.84
59789;BME280;47353;51.614;5.530;2022-12-18T14:32:11;102217.16;;;-1.12;81.05
59789;BME280;47353;51.614;5.530;2022-12-18T14:34:39;102221.38;;;-1.25;81.44
59789;BME280;47353;51.614;5.530;2022-12-18T14:37:05;102211.38;;;-1.09;79.86
59789;BME280;47353;51.614;5.530;2022-12-18T14:39:32;102205.44;;;-1.20;81.06
59789;BME280;47353;51.614;5.530;2022-12-18T14:41:57;102206.31;;;-1.04;80.72